sensor_id;sensor_type;location;lat;lon;timestamp;P1;durP1;ratioP1;P2;durP2;ratioP2
68216;SDS011;55037;52.354;4.992;2022-10-16T00:01:38;5.85;;;1.75;;
68216;SDS011;55037;52.354;4.992;2022-10-16T00:04:06;5.57;;;1.57;;
68216;SDS011;55037;52.354;4.992;2022-10-16T00:06:33;5.53;;;1.98;;
68216;SDS011;55037;52.354;4.992;2022-10-16T00:09:00;5.35;;;1.75;;
68216;SDS011;55037;52.354;4.992;2022-10-16T00:11:30;4.78;;;1.67;;
68216;SDS011;55037;52.354;4.992;2022-10-16T00:14:01;4.57;;;1.67;;
68216;SDS011;55037;52.354;4.992;2022-10-16T00:16:29;4.38;;;1.60;;
68216;SDS011;55037;52.354;4.992;2022-10-16T00:18:57;5.65;;;1.70;;
68216;SDS011;55037;52.354;4.992;2022-10-16T00:21:26;4.70;;;1.52;;
68216;SDS011;55037;52.354;4.992;2022-10-16T00:24:02;5.83;;;1.90;;
68216;SDS011;55037;52.354;4.992;2022-10-16T00:26:35;5.50;;;1.77;;
68216;SDS011;55037;52.354;4.992;2022-10-16T00:29:03;4.65;;;1.83;;
68216;SDS011;55037;52.354;4.992;2022-10-16T00:31:32;5.97;;;2.00;;
68216;SDS011;55037;52.354;4.992;2022-10-16T00:33:59;4.97;;;1.80;;
68216;SDS011;55037;52.354;4.992;2022-10-16T00:36:27;5.47;;;1.80;;
68216;SDS011;55037;52.354;4.992;2022-10-16T00:38:55;5.72;;;1.90;;
68216;SDS011;55037;52.354;4.992;2022-10-16T00:41:27;4.65;;;1.52;;
68216;SDS011;55037;52.354;4.992;2022-10-16T00:43:56;6.75;;;1.75;;
68216;SDS011;55037;52.354;4.992;2022-10-16T00:46:37;5.38;;;1.80;;
68216;SDS011;55037;52.354;4.992;2022-10-16T00:49:08;4.67;;;1.50;;
68216;SDS011;55037;52.354;4.992;2022-10-16T00:51:40;4.67;;;1.70;;
68216;SDS011;55037;52.354;4.992;2022-10-16T00:54:10;4.63;;;1.70;;
68216;SDS011;55037;52.354;4.992;2022-10-16T00:56:41;5.25;;;1.55;;
68216;SDS011;55037;52.354;4.992;2022-10-16T00:59:16;4.90;;;1.67;;
68216;SDS011;55037;52.354;4.992;2022-10-16T01:01:51;4.47;;;1.80;;
68216;SDS011;55037;52.354;4.992;2022-10-16T01:04:20;6.53;;;1.75;;
68216;SDS011;55037;52.354;4.992;2022-10-16T01:09:47;5.10;;;1.80;;
68216;SDS011;55037;52.354;4.992;2022-10-16T01:12:42;4.88;;;1.88;;
68216;SDS011;55037;52.354;4.992;2022-10-16T01:15:25;4.95;;;1.90;;
68216;SDS011;55037;52.354;4.992;2022-10-16T01:17:57;4.95;;;1.55;;
68216;SDS011;55037;52.354;4.992;2022-10-16T01:20:31;4.65;;;1.50;;
68216;SDS011;55037;52.354;4.992;2022-10-16T01:23:07;4.35;;;1.65;;
68216;SDS011;55037;52.354;4.992;2022-10-16T01:26:10;6.80;;;1.60;;
68216;SDS011;55037;52.354;4.992;2022-10-16T01:28:57;3.80;;;1.58;;
68216;SDS011;55037;52.354;4.992;2022-10-16T01:31:37;3.53;;;1.60;;
68216;SDS011;55037;52.354;4.992;2022-10-16T01:34:18;4.97;;;1.50;;
68216;SDS011;55037;52.354;4.992;2022-10-16T01:36:56;3.42;;;1.45;;
68216;SDS011;55037;52.354;4.992;2022-10-16T01:39:29;4.88;;;1.70;;
68216;SDS011;55037;52.354;4.992;2022-10-16T01:42:01;3.38;;;1.42;;
68216;SDS011;55037;52.354;4.992;2022-10-16T01:44:34;4.85;;;1.40;;
68216;SDS011;55037;52.354;4.992;2022-10-16T01:47:05;5.50;;;1.30;;
68216;SDS011;55037;52.354;4.992;2022-10-16T01:49:37;3.67;;;1.40;;
68216;SDS011;55037;52.354;4.992;2022-10-16T01:52:08;4.55;;;1.50;;
68216;SDS011;55037;52.354;4.992;2022-10-16T01:54:39;4.20;;;1.55;;
68216;SDS011;55037;52.354;4.992;2022-10-16T01:57:09;3.20;;;1.65;;
68216;SDS011;55037;52.354;4.992;2022-10-16T01:59:41;4.47;;;1.55;;
68216;SDS011;55037;52.354;4.992;2022-10-16T02:02:10;4.53;;;1.70;;
68216;SDS011;55037;52.354;4.992;2022-10-16T02:04:47;4.50;;;1.60;;
68216;SDS011;55037;52.354;4.992;2022-10-16T02:07:19;3.80;;;1.45;;
68216;SDS011;55037;52.354;4.992;2022-10-16T02:09:46;3.22;;;1.52;;
68216;SDS011;55037;52.354;4.992;2022-10-16T02:12:33;3.83;;;1.52;;
68216;SDS011;55037;52.354;4.992;2022-10-16T02:15:02;3.53;;;1.67;;
68216;SDS011;55037;52.354;4.992;2022-10-16T02:17:29;4.13;;;1.70;;
68216;SDS011;55037;52.354;4.992;2022-10-16T02:19:56;4.20;;;1.60;;
68216;SDS011;55037;52.354;4.992;2022-10-16T02:22:27;4.85;;;1.70;;
68216;SDS011;55037;52.354;4.992;2022-10-16T02:24:59;3.75;;;1.63;;
68216;SDS011;55037;52.354;4.992;2022-10-16T02:27:37;3.90;;;1.58;;
68216;SDS011;55037;52.354;4.992;2022-10-16T02:33:02;3.28;;;1.70;;
68216;SDS011;55037;52.354;4.992;2022-10-16T02:35:33;3.43;;;1.60;;
68216;SDS011;55037;52.354;4.992;2022-10-16T02:38:02;3.90;;;1.70;;
68216;SDS011;55037;52.354;4.992;2022-10-16T02:40:29;4.00;;;1.73;;
68216;SDS011;55037;52.354;4.992;2022-10-16T02:42:57;4.05;;;1.90;;
68216;SDS011;55037;52.354;4.992;2022-10-16T02:45:25;3.63;;;1.80;;
68216;SDS011;55037;52.354;4.992;2022-10-16T02:47:52;3.35;;;1.50;;
68216;SDS011;55037;52.354;4.992;2022-10-16T02:50:20;4.78;;;1.60;;
68216;SDS011;55037;52.354;4.992;2022-10-16T02:52:47;5.15;;;1.83;;
68216;SDS011;55037;52.354;4.992;2022-10-16T02:55:15;5.00;;;1.70;;
68216;SDS011;55037;52.354;4.992;2022-10-16T02:57:42;4.10;;;2.00;;
68216;SDS011;55037;52.354;4.992;2022-10-16T03:00:09;3.80;;;2.20;;
68216;SDS011;55037;52.354;4.992;2022-10-16T03:02:39;4.85;;;2.10;;
68216;SDS011;55037;52.354;4.992;2022-10-16T03:05:08;4.53;;;2.30;;
68216;SDS011;55037;52.354;4.992;2022-10-16T03:07:35;5.10;;;2.20;;
68216;SDS011;55037;52.354;4.992;2022-10-16T03:10:03;4.23;;;2.10;;
68216;SDS011;55037;52.354;4.992;2022-10-16T03:12:30;4.45;;;2.50;;
68216;SDS011;55037;52.354;4.992;2022-10-16T03:14:58;4.15;;;2.20;;
68216;SDS011;55037;52.354;4.992;2022-10-16T03:17:25;3.95;;;2.17;;
68216;SDS011;55037;52.354;4.992;2022-10-16T03:19:53;6.90;;;2.05;;
68216;SDS011;55037;52.354;4.992;2022-10-16T03:22:20;6.80;;;2.33;;
68216;SDS011;55037;52.354;4.992;2022-10-16T03:24:47;5.78;;;2.20;;
68216;SDS011;55037;52.354;4.992;2022-10-16T03:27:14;5.15;;;2.40;;
68216;SDS011;55037;52.354;4.992;2022-10-16T03:29:41;7.43;;;2.47;;
68216;SDS011;55037;52.354;4.992;2022-10-16T03:32:08;4.13;;;2.50;;
68216;SDS011;55037;52.354;4.992;2022-10-16T03:34:35;3.92;;;2.20;;
68216;SDS011;55037;52.354;4.992;2022-10-16T03:37:03;5.88;;;2.70;;
68216;SDS011;55037;52.354;4.992;2022-10-16T03:39:30;5.77;;;2.40;;
68216;SDS011;55037;52.354;4.992;2022-10-16T03:41:57;4.50;;;2.40;;
68216;SDS011;55037;52.354;4.992;2022-10-16T03:44:24;4.47;;;2.67;;
68216;SDS011;55037;52.354;4.992;2022-10-16T03:46:52;5.15;;;2.50;;
68216;SDS011;55037;52.354;4.992;2022-10-16T03:49:19;4.75;;;2.65;;
68216;SDS011;55037;52.354;4.992;2022-10-16T03:51:46;4.80;;;2.27;;
68216;SDS011;55037;52.354;4.992;2022-10-16T03:54:13;5.75;;;2.25;;
68216;SDS011;55037;52.354;4.992;2022-10-16T03:56:40;5.22;;;2.50;;
68216;SDS011;55037;52.354;4.992;2022-10-16T03:59:07;7.07;;;2.40;;
68216;SDS011;55037;52.354;4.992;2022-10-16T04:01:34;6.18;;;2.25;;
68216;SDS011;55037;52.354;4.992;2022-10-16T04:04:01;4.47;;;2.22;;
68216;SDS011;55037;52.354;4.992;2022-10-16T04:06:29;5.13;;;2.30;;
68216;SDS011;55037;52.354;4.992;2022-10-16T04:08:56;5.50;;;2.43;;
68216;SDS011;55037;52.354;4.992;2022-10-16T04:11:23;6.07;;;2.15;;
68216;SDS011;55037;52.354;4.992;2022-10-16T04:13:50;4.97;;;2.33;;
68216;SDS011;55037;52.354;4.992;2022-10-16T04:16:17;6.00;;;2.15;;
68216;SDS011;55037;52.354;4.992;2022-10-16T04:18:44;6.07;;;2.15;;
68216;SDS011;55037;52.354;4.992;2022-10-16T04:21:12;4.75;;;2.20;;
68216;SDS011;55037;52.354;4.992;2022-10-16T04:23:39;4.23;;;2.20;;
68216;SDS011;55037;52.354;4.992;2022-10-16T04:26:06;5.57;;;2.08;;
68216;SDS011;55037;52.354;4.992;2022-10-16T04:28:33;5.10;;;2.20;;
68216;SDS011;55037;52.354;4.992;2022-10-16T04:31:03;4.68;;;2.17;;
68216;SDS011;55037;52.354;4.992;2022-10-16T04:33:30;4.10;;;2.10;;
68216;SDS011;55037;52.354;4.992;2022-10-16T04:35:59;5.50;;;2.40;;
68216;SDS011;55037;52.354;4.992;2022-10-16T04:38:27;6.72;;;2.60;;
68216;SDS011;55037;52.354;4.992;2022-10-16T04:40:55;4.60;;;2.20;;
68216;SDS011;55037;52.354;4.992;2022-10-16T04:43:22;5.90;;;2.30;;
68216;SDS011;55037;52.354;4.992;2022-10-16T04:45:49;3.78;;;1.90;;
68216;SDS011;55037;52.354;4.992;2022-10-16T04:48:17;5.47;;;2.15;;
68216;SDS011;55037;52.354;4.992;2022-10-16T04:50:45;4.20;;;2.28;;
68216;SDS011;55037;52.354;4.992;2022-10-16T04:53:17;4.88;;;2.20;;
68216;SDS011;55037;52.354;4.992;2022-10-16T04:55:44;5.50;;;2.33;;
68216;SDS011;55037;52.354;4.992;2022-10-16T04:58:11;6.00;;;2.05;;
68216;SDS011;55037;52.354;4.992;2022-10-16T05:00:38;7.00;;;2.10;;
68216;SDS011;55037;52.354;4.992;2022-10-16T05:03:06;5.67;;;2.10;;
68216;SDS011;55037;52.354;4.992;2022-10-16T05:05:36;3.53;;;1.70;;
68216;SDS011;55037;52.354;4.992;2022-10-16T05:08:03;5.53;;;2.00;;
68216;SDS011;55037;52.354;4.992;2022-10-16T05:10:30;3.63;;;2.17;;
68216;SDS011;55037;52.354;4.992;2022-10-16T05:12:57;5.53;;;2.15;;
68216;SDS011;55037;52.354;4.992;2022-10-16T05:15:25;5.88;;;2.05;;
68216;SDS011;55037;52.354;4.992;2022-10-16T05:17:53;5.63;;;2.10;;
68216;SDS011;55037;52.354;4.992;2022-10-16T05:20:21;5.80;;;2.20;;
68216;SDS011;55037;52.354;4.992;2022-10-16T05:22:49;5.63;;;2.10;;
68216;SDS011;55037;52.354;4.992;2022-10-16T05:25:16;5.03;;;2.00;;
68216;SDS011;55037;52.354;4.992;2022-10-16T05:27:46;4.68;;;1.92;;
68216;SDS011;55037;52.354;4.992;2022-10-16T05:30:15;6.30;;;2.20;;
68216;SDS011;55037;52.354;4.992;2022-10-16T05:32:50;5.28;;;2.00;;
68216;SDS011;55037;52.354;4.992;2022-10-16T05:35:18;4.80;;;2.00;;
68216;SDS011;55037;52.354;4.992;2022-10-16T05:37:46;6.82;;;2.35;;
68216;SDS011;55037;52.354;4.992;2022-10-16T05:40:14;6.18;;;2.20;;
68216;SDS011;55037;52.354;4.992;2022-10-16T05:42:42;4.15;;;1.80;;
68216;SDS011;55037;52.354;4.992;2022-10-16T05:45:09;3.85;;;2.00;;
68216;SDS011;55037;52.354;4.992;2022-10-16T05:47:38;5.35;;;2.25;;
68216;SDS011;55037;52.354;4.992;2022-10-16T05:50:06;5.73;;;2.30;;
68216;SDS011;55037;52.354;4.992;2022-10-16T05:52:34;7.18;;;2.58;;
68216;SDS011;55037;52.354;4.992;2022-10-16T05:55:01;4.50;;;1.92;;
68216;SDS011;55037;52.354;4.992;2022-10-16T05:57:28;5.97;;;2.40;;
68216;SDS011;55037;52.354;4.992;2022-10-16T05:59:56;7.57;;;2.17;;
68216;SDS011;55037;52.354;4.992;2022-10-16T06:02:23;7.30;;;2.37;;
68216;SDS011;55037;52.354;4.992;2022-10-16T06:04:53;5.95;;;2.10;;
68216;SDS011;55037;52.354;4.992;2022-10-16T06:07:21;4.90;;;2.30;;
68216;SDS011;55037;52.354;4.992;2022-10-16T06:09:50;4.90;;;2.30;;
68216;SDS011;55037;52.354;4.992;2022-10-16T06:12:18;5.35;;;2.13;;
68216;SDS011;55037;52.354;4.992;2022-10-16T06:14:46;7.57;;;2.67;;
68216;SDS011;55037;52.354;4.992;2022-10-16T06:17:14;6.07;;;2.38;;
68216;SDS011;55037;52.354;4.992;2022-10-16T06:19:41;5.50;;;2.13;;
68216;SDS011;55037;52.354;4.992;2022-10-16T06:22:08;7.63;;;2.25;;
68216;SDS011;55037;52.354;4.992;2022-10-16T06:24:36;5.00;;;1.90;;
68216;SDS011;55037;52.354;4.992;2022-10-16T06:27:03;6.47;;;2.45;;
68216;SDS011;55037;52.354;4.992;2022-10-16T06:29:31;6.13;;;2.20;;
68216;SDS011;55037;52.354;4.992;2022-10-16T06:31:58;8.55;;;2.42;;
68216;SDS011;55037;52.354;4.992;2022-10-16T06:34:26;5.13;;;1.98;;
68216;SDS011;55037;52.354;4.992;2022-10-16T06:36:53;5.05;;;2.08;;
68216;SDS011;55037;52.354;4.992;2022-10-16T06:39:20;4.95;;;2.30;;
68216;SDS011;55037;52.354;4.992;2022-10-16T06:41:47;6.47;;;2.42;;
68216;SDS011;55037;52.354;4.992;2022-10-16T06:44:15;4.88;;;2.28;;
68216;SDS011;55037;52.354;4.992;2022-10-16T06:46:42;5.28;;;2.25;;
68216;SDS011;55037;52.354;4.992;2022-10-16T06:49:09;5.68;;;2.50;;
68216;SDS011;55037;52.354;4.992;2022-10-16T06:51:37;6.90;;;2.50;;
68216;SDS011;55037;52.354;4.992;2022-10-16T06:54:09;6.68;;;2.20;;
68216;SDS011;55037;52.354;4.992;2022-10-16T06:56:36;5.40;;;2.40;;
68216;SDS011;55037;52.354;4.992;2022-10-16T06:59:04;5.22;;;1.88;;
68216;SDS011;55037;52.354;4.992;2022-10-16T07:01:31;6.45;;;2.05;;
68216;SDS011;55037;52.354;4.992;2022-10-16T07:03:59;6.53;;;2.23;;
68216;SDS011;55037;52.354;4.992;2022-10-16T07:06:30;6.13;;;2.50;;
68216;SDS011;55037;52.354;4.992;2022-10-16T07:09:00;5.65;;;2.40;;
68216;SDS011;55037;52.354;4.992;2022-10-16T07:11:32;5.90;;;2.30;;
68216;SDS011;55037;52.354;4.992;2022-10-16T07:13:59;6.32;;;2.30;;
68216;SDS011;55037;52.354;4.992;2022-10-16T07:16:27;5.25;;;2.08;;
68216;SDS011;55037;52.354;4.992;2022-10-16T07:18:56;5.30;;;2.03;;
68216;SDS011;55037;52.354;4.992;2022-10-16T07:21:28;4.60;;;2.30;;
68216;SDS011;55037;52.354;4.992;2022-10-16T07:23:58;7.28;;;2.13;;
68216;SDS011;55037;52.354;4.992;2022-10-16T07:26:28;6.63;;;2.17;;
68216;SDS011;55037;52.354;4.992;2022-10-16T07:28:57;6.50;;;2.10;;
68216;SDS011;55037;52.354;4.992;2022-10-16T07:31:25;5.97;;;2.00;;
68216;SDS011;55037;52.354;4.992;2022-10-16T07:33:52;4.63;;;1.80;;
68216;SDS011;55037;52.354;4.992;2022-10-16T07:36:20;4.47;;;1.92;;
68216;SDS011;55037;52.354;4.992;2022-10-16T07:38:47;5.00;;;1.70;;
68216;SDS011;55037;52.354;4.992;2022-10-16T07:41:16;5.75;;;1.73;;
68216;SDS011;55037;52.354;4.992;2022-10-16T07:43:46;5.85;;;2.00;;
68216;SDS011;55037;52.354;4.992;2022-10-16T07:46:17;4.95;;;1.70;;
68216;SDS011;55037;52.354;4.992;2022-10-16T07:48:46;6.93;;;1.70;;
68216;SDS011;55037;52.354;4.992;2022-10-16T07:51:15;5.40;;;1.60;;
68216;SDS011;55037;52.354;4.992;2022-10-16T07:53:44;5.75;;;1.52;;
68216;SDS011;55037;52.354;4.992;2022-10-16T07:56:11;4.72;;;1.42;;
68216;SDS011;55037;52.354;4.992;2022-10-16T07:58:39;5.82;;;1.58;;
68216;SDS011;55037;52.354;4.992;2022-10-16T08:01:10;8.20;;;1.90;;
68216;SDS011;55037;52.354;4.992;2022-10-16T08:03:46;5.97;;;1.50;;
68216;SDS011;55037;52.354;4.992;2022-10-16T08:06:18;5.38;;;1.58;;
68216;SDS011;55037;52.354;4.992;2022-10-16T08:08:54;6.50;;;1.60;;
68216;SDS011;55037;52.354;4.992;2022-10-16T08:11:22;5.95;;;1.88;;
68216;SDS011;55037;52.354;4.992;2022-10-16T08:13:50;7.35;;;1.90;;
68216;SDS011;55037;52.354;4.992;2022-10-16T08:16:17;6.57;;;1.95;;
68216;SDS011;55037;52.354;4.992;2022-10-16T08:18:44;5.78;;;1.70;;
68216;SDS011;55037;52.354;4.992;2022-10-16T08:21:13;5.47;;;1.73;;
68216;SDS011;55037;52.354;4.992;2022-10-16T08:23:47;8.05;;;1.80;;
68216;SDS011;55037;52.354;4.992;2022-10-16T08:26:24;4.60;;;1.65;;
68216;SDS011;55037;52.354;4.992;2022-10-16T08:28:52;6.82;;;1.73;;
68216;SDS011;55037;52.354;4.992;2022-10-16T08:31:20;5.57;;;1.88;;
68216;SDS011;55037;52.354;4.992;2022-10-16T08:33:47;5.82;;;1.80;;
68216;SDS011;55037;52.354;4.992;2022-10-16T08:36:15;6.82;;;2.00;;
68216;SDS011;55037;52.354;4.992;2022-10-16T08:38:43;5.37;;;1.70;;
68216;SDS011;55037;52.354;4.992;2022-10-16T08:43:50;5.20;;;1.80;;
68216;SDS011;55037;52.354;4.992;2022-10-16T08:49:02;7.75;;;2.10;;
68216;SDS011;55037;52.354;4.992;2022-10-16T08:51:31;7.70;;;1.98;;
68216;SDS011;55037;52.354;4.992;2022-10-16T08:54:08;9.17;;;2.20;;
68216;SDS011;55037;52.354;4.992;2022-10-16T08:56:47;6.30;;;2.10;;
68216;SDS011;55037;52.354;4.992;2022-10-16T08:59:14;8.65;;;2.00;;
68216;SDS011;55037;52.354;4.992;2022-10-16T09:01:47;8.20;;;1.92;;
68216;SDS011;55037;52.354;4.992;2022-10-16T09:12:32;8.13;;;2.10;;
68216;SDS011;55037;52.354;4.992;2022-10-16T09:18:04;8.80;;;1.80;;
68216;SDS011;55037;52.354;4.992;2022-10-16T09:20:53;8.02;;;1.92;;
68216;SDS011;55037;52.354;4.992;2022-10-16T09:23:34;8.13;;;2.10;;
68216;SDS011;55037;52.354;4.992;2022-10-16T09:26:03;10.00;;;2.50;;
68216;SDS011;55037;52.354;4.992;2022-10-16T09:28:32;6.70;;;2.03;;
68216;SDS011;55037;52.354;4.992;2022-10-16T09:30:59;9.63;;;2.40;;
68216;SDS011;55037;52.354;4.992;2022-10-16T09:33:30;9.20;;;2.20;;
68216;SDS011;55037;52.354;4.992;2022-10-16T09:36:02;12.20;;;2.10;;
68216;SDS011;55037;52.354;4.992;2022-10-16T09:38:32;8.43;;;2.05;;
68216;SDS011;55037;52.354;4.992;2022-10-16T09:41:01;9.63;;;2.38;;
68216;SDS011;55037;52.354;4.992;2022-10-16T09:43:46;7.18;;;2.10;;
68216;SDS011;55037;52.354;4.992;2022-10-16T09:46:31;9.98;;;2.13;;
68216;SDS011;55037;52.354;4.992;2022-10-16T09:49:01;9.77;;;2.38;;
68216;SDS011;55037;52.354;4.992;2022-10-16T09:51:32;12.27;;;2.50;;
68216;SDS011;55037;52.354;4.992;2022-10-16T09:54:11;12.50;;;2.65;;
68216;SDS011;55037;52.354;4.992;2022-10-16T09:56:41;11.35;;;2.30;;
68216;SDS011;55037;52.354;4.992;2022-10-16T09:59:12;8.25;;;2.08;;
68216;SDS011;55037;52.354;4.992;2022-10-16T10:01:51;10.77;;;2.47;;
68216;SDS011;55037;52.354;4.992;2022-10-16T10:04:20;9.32;;;2.30;;
68216;SDS011;55037;52.354;4.992;2022-10-16T10:06:51;8.67;;;2.30;;
68216;SDS011;55037;52.354;4.992;2022-10-16T10:19:39;8.15;;;2.28;;
68216;SDS011;55037;52.354;4.992;2022-10-16T10:33:05;11.65;;;2.42;;
68216;SDS011;55037;52.354;4.992;2022-10-16T10:41:55;13.13;;;2.78;;
68216;SDS011;55037;52.354;4.992;2022-10-16T10:50:18;9.70;;;3.00;;
68216;SDS011;55037;52.354;4.992;2022-10-16T10:53:06;14.43;;;3.93;;
68216;SDS011;55037;52.354;4.992;2022-10-16T11:07:16;11.27;;;2.70;;
68216;SDS011;55037;52.354;4.992;2022-10-16T11:09:53;8.70;;;2.40;;
68216;SDS011;55037;52.354;4.992;2022-10-16T11:12:32;7.60;;;2.10;;
68216;SDS011;55037;52.354;4.992;2022-10-16T11:15:12;10.70;;;2.38;;
68216;SDS011;55037;52.354;4.992;2022-10-16T11:17:53;10.75;;;2.33;;
68216;SDS011;55037;52.354;4.992;2022-10-16T11:20:33;7.78;;;2.10;;
68216;SDS011;55037;52.354;4.992;2022-10-16T11:25:59;7.85;;;1.83;;
68216;SDS011;55037;52.354;4.992;2022-10-16T11:28:42;7.93;;;1.73;;
68216;SDS011;55037;52.354;4.992;2022-10-16T11:31:21;8.25;;;2.25;;
68216;SDS011;55037;52.354;4.992;2022-10-16T11:36:23;8.10;;;2.20;;
68216;SDS011;55037;52.354;4.992;2022-10-16T11:41:41;7.70;;;1.92;;
68216;SDS011;55037;52.354;4.992;2022-10-16T11:55:44;6.57;;;1.77;;
68216;SDS011;55037;52.354;4.992;2022-10-16T11:58:32;7.78;;;1.80;;
68216;SDS011;55037;52.354;4.992;2022-10-16T12:04:23;8.68;;;1.90;;
68216;SDS011;55037;52.354;4.992;2022-10-16T12:07:21;7.95;;;2.00;;
68216;SDS011;55037;52.354;4.992;2022-10-16T12:09:51;7.73;;;1.90;;
68216;SDS011;55037;52.354;4.992;2022-10-16T12:17:55;7.05;;;1.60;;
68216;SDS011;55037;52.354;4.992;2022-10-16T12:20:27;7.60;;;1.40;;
68216;SDS011;55037;52.354;4.992;2022-10-16T12:23:00;8.13;;;1.90;;
68216;SDS011;55037;52.354;4.992;2022-10-16T12:25:35;8.43;;;1.97;;
68216;SDS011;55037;52.354;4.992;2022-10-16T12:30:42;7.45;;;2.10;;
68216;SDS011;55037;52.354;4.992;2022-10-16T12:33:22;6.90;;;1.90;;
68216;SDS011;55037;52.354;4.992;2022-10-16T12:35:52;7.47;;;1.77;;
68216;SDS011;55037;52.354;4.992;2022-10-16T12:41:01;8.15;;;1.77;;
68216;SDS011;55037;52.354;4.992;2022-10-16T12:43:40;7.70;;;1.77;;
68216;SDS011;55037;52.354;4.992;2022-10-16T12:48:36;8.63;;;1.95;;
68216;SDS011;55037;52.354;4.992;2022-10-16T13:00:02;9.27;;;1.80;;
68216;SDS011;55037;52.354;4.992;2022-10-16T13:19:19;7.40;;;1.77;;
68216;SDS011;55037;52.354;4.992;2022-10-16T13:30:16;7.20;;;1.73;;
68216;SDS011;55037;52.354;4.992;2022-10-16T13:35:49;8.15;;;1.80;;
68216;SDS011;55037;52.354;4.992;2022-10-16T13:38:22;7.78;;;1.88;;
68216;SDS011;55037;52.354;4.992;2022-10-16T13:40:55;12.07;;;1.98;;
68216;SDS011;55037;52.354;4.992;2022-10-16T13:46:21;8.68;;;2.00;;
68216;SDS011;55037;52.354;4.992;2022-10-16T13:48:56;9.03;;;2.00;;
68216;SDS011;55037;52.354;4.992;2022-10-16T13:51:25;8.60;;;2.07;;
68216;SDS011;55037;52.354;4.992;2022-10-16T13:53:54;9.20;;;1.85;;
68216;SDS011;55037;52.354;4.992;2022-10-16T13:56:25;7.80;;;1.88;;
68216;SDS011;55037;52.354;4.992;2022-10-16T13:59:04;12.25;;;2.00;;
68216;SDS011;55037;52.354;4.992;2022-10-16T14:01:42;8.68;;;2.00;;
68216;SDS011;55037;52.354;4.992;2022-10-16T14:04:11;7.68;;;1.70;;
68216;SDS011;55037;52.354;4.992;2022-10-16T14:06:41;7.40;;;1.88;;
68216;SDS011;55037;52.354;4.992;2022-10-16T14:12:01;8.88;;;1.75;;
68216;SDS011;55037;52.354;4.992;2022-10-16T14:14:43;8.85;;;1.60;;
68216;SDS011;55037;52.354;4.992;2022-10-16T14:17:15;8.68;;;1.80;;
68216;SDS011;55037;52.354;4.992;2022-10-16T14:19:46;8.80;;;1.77;;
68216;SDS011;55037;52.354;4.992;2022-10-16T14:22:30;8.03;;;1.50;;
68216;SDS011;55037;52.354;4.992;2022-10-16T14:25:00;8.10;;;2.10;;
68216;SDS011;55037;52.354;4.992;2022-10-16T14:28:00;7.35;;;2.00;;
68216;SDS011;55037;52.354;4.992;2022-10-16T14:30:48;8.40;;;1.70;;
68216;SDS011;55037;52.354;4.992;2022-10-16T14:33:22;10.20;;;1.67;;
68216;SDS011;55037;52.354;4.992;2022-10-16T14:38:38;8.73;;;1.58;;
68216;SDS011;55037;52.354;4.992;2022-10-16T14:41:07;7.70;;;1.70;;
68216;SDS011;55037;52.354;4.992;2022-10-16T14:43:39;9.57;;;2.17;;
68216;SDS011;55037;52.354;4.992;2022-10-16T14:46:12;8.02;;;2.05;;
68216;SDS011;55037;52.354;4.992;2022-10-16T14:48:42;8.65;;;1.70;;
68216;SDS011;55037;52.354;4.992;2022-10-16T14:51:17;10.60;;;2.10;;
68216;SDS011;55037;52.354;4.992;2022-10-16T14:53:45;6.78;;;2.00;;
68216;SDS011;55037;52.354;4.992;2022-10-16T14:56:15;11.27;;;2.33;;
68216;SDS011;55037;52.354;4.992;2022-10-16T14:58:45;9.75;;;2.30;;
68216;SDS011;55037;52.354;4.992;2022-10-16T15:01:12;9.93;;;1.90;;
68216;SDS011;55037;52.354;4.992;2022-10-16T15:03:39;10.18;;;1.90;;
68216;SDS011;55037;52.354;4.992;2022-10-16T15:06:09;10.90;;;2.63;;
68216;SDS011;55037;52.354;4.992;2022-10-16T15:08:38;10.32;;;3.17;;
68216;SDS011;55037;52.354;4.992;2022-10-16T15:11:10;13.00;;;3.20;;
68216;SDS011;55037;52.354;4.992;2022-10-16T15:13:40;11.97;;;2.30;;
68216;SDS011;55037;52.354;4.992;2022-10-16T15:16:11;10.93;;;2.17;;
68216;SDS011;55037;52.354;4.992;2022-10-16T15:18:40;9.90;;;2.13;;
68216;SDS011;55037;52.354;4.992;2022-10-16T15:21:07;15.02;;;2.28;;
68216;SDS011;55037;52.354;4.992;2022-10-16T15:23:35;13.30;;;3.08;;
68216;SDS011;55037;52.354;4.992;2022-10-16T15:26:02;13.40;;;3.28;;
68216;SDS011;55037;52.354;4.992;2022-10-16T15:28:29;9.93;;;3.10;;
68216;SDS011;55037;52.354;4.992;2022-10-16T15:30:57;8.50;;;2.75;;
68216;SDS011;55037;52.354;4.992;2022-10-16T15:33:26;16.20;;;3.47;;
68216;SDS011;55037;52.354;4.992;2022-10-16T15:36:04;9.77;;;2.38;;
68216;SDS011;55037;52.354;4.992;2022-10-16T15:38:31;9.70;;;2.10;;
68216;SDS011;55037;52.354;4.992;2022-10-16T15:40:59;10.20;;;2.20;;
68216;SDS011;55037;52.354;4.992;2022-10-16T15:43:26;10.23;;;2.10;;
68216;SDS011;55037;52.354;4.992;2022-10-16T15:46:00;9.20;;;1.95;;
68216;SDS011;55037;52.354;4.992;2022-10-16T15:48:30;9.70;;;2.10;;
68216;SDS011;55037;52.354;4.992;2022-10-16T15:50:58;9.13;;;2.15;;
68216;SDS011;55037;52.354;4.992;2022-10-16T15:53:26;9.67;;;2.07;;
68216;SDS011;55037;52.354;4.992;2022-10-16T15:55:53;12.05;;;2.10;;
68216;SDS011;55037;52.354;4.992;2022-10-16T15:58:20;7.82;;;2.00;;
68216;SDS011;55037;52.354;4.992;2022-10-16T16:00:54;11.70;;;2.35;;
68216;SDS011;55037;52.354;4.992;2022-10-16T16:03:29;10.47;;;2.30;;
68216;SDS011;55037;52.354;4.992;2022-10-16T16:06:02;14.80;;;2.93;;
68216;SDS011;55037;52.354;4.992;2022-10-16T16:08:32;12.55;;;2.40;;
68216;SDS011;55037;52.354;4.992;2022-10-16T16:11:07;12.57;;;2.78;;
68216;SDS011;55037;52.354;4.992;2022-10-16T16:13:38;12.18;;;2.47;;
68216;SDS011;55037;52.354;4.992;2022-10-16T16:16:07;10.68;;;2.53;;
68216;SDS011;55037;52.354;4.992;2022-10-16T16:18:36;11.93;;;2.33;;
68216;SDS011;55037;52.354;4.992;2022-10-16T16:21:03;13.20;;;2.47;;
68216;SDS011;55037;52.354;4.992;2022-10-16T16:23:31;9.05;;;2.10;;
68216;SDS011;55037;52.354;4.992;2022-10-16T16:26:05;10.35;;;2.08;;
68216;SDS011;55037;52.354;4.992;2022-10-16T16:28:50;10.77;;;2.40;;
68216;SDS011;55037;52.354;4.992;2022-10-16T16:31:17;15.07;;;2.60;;
68216;SDS011;55037;52.354;4.992;2022-10-16T16:33:45;13.55;;;2.78;;
68216;SDS011;55037;52.354;4.992;2022-10-16T16:36:12;13.30;;;2.75;;
68216;SDS011;55037;52.354;4.992;2022-10-16T16:38:41;13.55;;;2.70;;
68216;SDS011;55037;52.354;4.992;2022-10-16T16:41:16;11.65;;;2.80;;
68216;SDS011;55037;52.354;4.992;2022-10-16T16:43:45;12.02;;;2.75;;
68216;SDS011;55037;52.354;4.992;2022-10-16T16:46:18;12.07;;;2.92;;
68216;SDS011;55037;52.354;4.992;2022-10-16T16:48:45;11.90;;;3.00;;
68216;SDS011;55037;52.354;4.992;2022-10-16T16:51:14;12.68;;;3.13;;
68216;SDS011;55037;52.354;4.992;2022-10-16T16:53:43;11.65;;;3.10;;
68216;SDS011;55037;52.354;4.992;2022-10-16T16:56:10;12.82;;;3.50;;
68216;SDS011;55037;52.354;4.992;2022-10-16T16:58:38;11.60;;;3.70;;
68216;SDS011;55037;52.354;4.992;2022-10-16T17:01:06;16.02;;;4.35;;
68216;SDS011;55037;52.354;4.992;2022-10-16T17:03:52;16.60;;;5.00;;
68216;SDS011;55037;52.354;4.992;2022-10-16T17:06:26;16.10;;;4.47;;
68216;SDS011;55037;52.354;4.992;2022-10-16T17:08:56;16.88;;;4.97;;
68216;SDS011;55037;52.354;4.992;2022-10-16T17:11:24;17.80;;;4.72;;
68216;SDS011;55037;52.354;4.992;2022-10-16T17:13:53;14.48;;;4.63;;
68216;SDS011;55037;52.354;4.992;2022-10-16T17:16:24;15.93;;;4.32;;
68216;SDS011;55037;52.354;4.992;2022-10-16T17:18:58;17.13;;;3.75;;
68216;SDS011;55037;52.354;4.992;2022-10-16T17:21:26;12.53;;;3.40;;
68216;SDS011;55037;52.354;4.992;2022-10-16T17:23:56;14.13;;;3.47;;
68216;SDS011;55037;52.354;4.992;2022-10-16T17:26:23;11.70;;;3.63;;
68216;SDS011;55037;52.354;4.992;2022-10-16T17:28:51;13.43;;;4.20;;
68216;SDS011;55037;52.354;4.992;2022-10-16T17:31:21;14.23;;;4.37;;
68216;SDS011;55037;52.354;4.992;2022-10-16T17:33:51;13.20;;;3.90;;
68216;SDS011;55037;52.354;4.992;2022-10-16T17:36:18;17.42;;;3.80;;